Data for 03/04/2013

Time Sea-Level Adjusted Pressure Absolute Pressure Temperature Relative Humidity Dew Point   
(mb) (inHg) (mb) (inHg) (C) (F) (%) (C) (F)
00:05 1016 30 845 24.95 -4.8 23.4 73 -8.9 16
00:10 1016 30 845 24.95 -4.8 23.4 71 -9.3 15.3
00:15 1016 30 845 24.95 -4.9 23.2 71 -9.4 15.1
00:20 1016 30 845 24.95 -5.1 22.9 72 -9.4 15
00:25 1016 30 845 24.95 -5.2 22.7 73 -9.3 15.3
00:30 1016 30 845 24.95 -5.2 22.6 74 -9.2 15.5
00:35 1016 30 845 24.95 -5.3 22.4 75 -9.1 15.6
00:40 1016 30 846 24.98 -5.4 22.2 75 -9.2 15.4
00:45 1016 30 846 24.98 -5.5 22.1 76 -9 15.8
00:50 1017 30.03 846 24.98 -5.6 22 78 -8.9 16
00:55 1017 30.03 846 24.98 -5.8 21.6 77 -9.1 15.6
01:00 1017 30.03 846 24.98 -5.8 21.5 78 -9.1 15.6
01:05 1017 30.03 846 24.98 -5.8 21.5 77 -9.2 15.4
01:10 1017 30.03 846 24.98 -5.8 21.6 77 -9.2 15.4
01:15 1017 30.03 846 24.98 -5.8 21.5 77 -9.2 15.4
01:20 1017 30.03 846 24.98 -5.9 21.4 76 -9.4 15.1
01:25 1017 30.03 846 24.98 -5.8 21.5 76 -9.5 14.9
01:30 1017 30.03 846 24.98 -5.9 21.3 76 -9.5 15
01:35 1017 30.03 846 24.98 -5.9 21.4 74 -9.7 14.5
01:40 1017 30.03 846 24.98 -5.9 21.4 74 -9.8 14.3
01:45 1017 30.03 846 24.98 -5.8 21.6 73 -9.8 14.3
01:50 1017 30.03 847 25.01 -5.7 21.7 73 -9.8 14.3
01:55 1017 30.03 847 25.01 -5.8 21.6 72 -10 13.9
02:00 1017 30.03 847 25.01 -5.8 21.5 72 -10.1 13.8
02:05 1018 30.06 847 25.01 -5.8 21.5 73 -9.9 14.1
02:10 1017 30.03 847 25.01 -5.8 21.5 73 -9.9 14.2
02:15 1017 30.03 847 25.01 -5.9 21.4 74 -9.8 14.3
02:20 1017 30.03 847 25.01 -5.9 21.3 73 -9.9 14.1
02:25 1017 30.03 847 25.01 -6 21.2 73 -10 14
02:30 1018 30.06 847 25.01 -6 21.2 74 -9.9 14.1
02:35 1018 30.06 847 25.01 -6.1 21.1 72 -10.3 13.5
02:40 1018 30.06 847 25.01 -6.1 21.1 72 -10.3 13.4
02:45 1018 30.06 847 25.01 -6 21.1 72 -10.2 13.6
02:50 1018 30.06 847 25.01 -6 21.2 71 -10.4 13.3
02:55 1018 30.06 847 25.01 -6 21.2 71 -10.5 13.1
03:00 1018 30.06 847 25.01 -6 21.1 72 -10.3 13.4
03:05 1018 30.06 847 25.01 -6.1 20.9 75 -10 14.1
03:10 1018 30.06 847 25.01 -6.3 20.6 76 -9.9 14.2
03:15 1018 30.06 847 25.01 -6.5 20.2 75 -10.3 13.5
03:20 1018 30.06 847 25.01 -6.6 20.2 76 -10.1 13.9
03:25 1018 30.06 847 25.01 -6.6 20.2 76 -10.1 13.9
03:30 1018 30.06 847 25.01 -6.7 20 75 -10.3 13.5
03:35 1018 30.06 847 25.01 -6.6 20.1 76 -10.1 13.8
03:40 1018 30.06 847 25.01 -6.5 20.3 74 -10.3 13.4
03:45 1018 30.06 847 25.01 -6.4 20.5 72 -10.7 12.7
03:50 1018 30.06 847 25.01 -6.4 20.5 71 -10.7 12.7
03:55 1018 30.06 847 25.01 -6.4 20.4 73 -10.6 13
04:00 1018 30.06 848 25.04 -6.5 20.3 73 -10.5 13.1
04:05 1018 30.06 848 25.04 -6.5 20.2 74 -10.5 13.1
04:10 1018 30.06 848 25.04 -6.5 20.2 75 -10.2 13.6
04:15 1018 30.06 848 25.04 -6.6 20.2 77 -10 14
04:20 1018 30.06 848 25.04 -6.6 20.2 79 -9.6 14.7
04:25 1018 30.06 848 25.04 -6.8 19.8 82 -9.4 15.1
04:30 1019 30.09 848 25.04 -6.9 19.5 84 -9.3 15.3
04:35 1019 30.09 848 25.04 -7 19.3 85 -9.2 15.5
04:40 1019 30.09 848 25.04 -7.1 19.2 85 -9.2 15.5
04:45 1019 30.09 848 25.04 -7.1 19.1 87 -9 15.8
04:50 1019 30.09 848 25.04 -7.2 19.1 87 -9 15.8
04:55 1019 30.09 848 25.04 -7.2 19.1 87 -9 15.8
05:00 1019 30.09 848 25.04 -7.2 19.1 87 -9 15.8
05:05 1019 30.09 848 25.04 -7.1 19.2 84 -9.4 15.1
05:10 1019 30.09 848 25.04 -7.1 19.2 83 -9.6 14.8
05:15 1019 30.09 848 25.04 -7 19.3 83 -9.5 14.9
05:20 1019 30.09 848 25.04 -7.1 19.2 84 -9.4 15
05:25 1019 30.09 848 25.04 -7.2 19.1 84 -9.3 15.2
05:30 1019 30.09 849 25.07 -7.2 19 85 -9.3 15.2
05:35 1019 30.09 849 25.07 -7.2 19 85 -9.3 15.3
05:40 1020 30.12 849 25.07 -7.3 18.9 87 -9.1 15.5
05:45 1020 30.12 849 25.07 -7.3 18.9 87 -9.1 15.6
05:50 1020 30.12 849 25.07 -7.3 18.9 86 -9.2 15.5
05:55 1020 30.12 849 25.07 -7.4 18.8 86 -9.3 15.3
06:00 1020 30.12 849 25.07 -7.3 18.9 82 -9.8 14.3
06:05 1020 30.12 849 25.07 -7.2 19 81 -9.9 14.2
06:10 1020 30.12 849 25.07 -7.2 19.1 80 -10.1 13.9
06:15 1020 30.12 849 25.07 -7.2 19.1 78 -10.3 13.4
06:20 1020 30.12 849 25.07 -7.1 19.2 75 -10.8 12.6
06:25 1020 30.12 849 25.07 -7 19.3 72 -11.3 11.7
06:30 1020 30.12 849 25.07 -7 19.4 70 -11.6 11
06:35 1020 30.12 849 25.07 -7 19.4 69 -11.8 10.8
06:40 1020 30.12 849 25.07 -7 19.4 69 -11.7 10.9
06:45 1020 30.12 849 25.07 -7 19.3 69 -11.7 10.9
06:50 1020 30.12 849 25.07 -7.1 19.3 70 -11.6 11.2
06:55 1020 30.12 850 25.1 -7.1 19.3 71 -11.5 11.4
07:00 1020 30.12 850 25.1 -7.1 19.3 71 -11.6 11.2
07:05 1021 30.15 850 25.1 -7 19.4 70 -11.5 11.2
07:10 1021 30.15 850 25.1 -7 19.4 71 -11.5 11.3
07:15 1021 30.15 850 25.1 -6.9 19.5 70 -11.6 11.2
07:20 1021 30.15 850 25.1 -7 19.5 71 -11.4 11.4
07:25 1021 30.15 850 25.1 -7 19.4 71 -11.5 11.3
07:30 1021 30.15 850 25.1 -7 19.3 71 -11.5 11.4
07:35 1021 30.15 850 25.1 -7.1 19.3 71 -11.4 11.5
07:40 1021 30.15 850 25.1 -7.1 19.2 71 -11.6 11.2
07:45 1021 30.15 850 25.1 -7.2 19.1 71 -11.5 11.3
07:50 1021 30.15 850 25.1 -7.2 19.1 71 -11.6 11.1
07:55 1021 30.15 850 25.1 -7.3 19 71 -11.6 11.1
08:00 1021 30.15 850 25.1 -7.3 18.9 72 -11.5 11.3
08:05 1021 30.15 850 25.1 -7.2 19 72 -11.4 11.4
08:10 1021 30.15 850 25.1 -7.3 18.9 72 -11.5 11.4
08:15 1021 30.15 850 25.1 -7.2 19 72 -11.5 11.3
08:20 1021 30.15 850 25.1 -7.3 18.9 72 -11.5 11.3
08:25 1021 30.15 851 25.13 -7.3 19 70 -11.8 10.8
08:30 1021 30.15 851 25.13 -7.2 19 70 -11.9 10.7
08:35 1021 30.15 851 25.13 -7.2 19 69 -11.9 10.6
08:40 1021 30.15 851 25.13 -7.3 18.8 69 -12.1 10.3
08:45 1021 30.15 851 25.13 -7.3 18.8 69 -12.2 10.1
08:50 1022 30.18 851 25.13 -7.4 18.7 69 -12.2 10
08:55 1022 30.18 851 25.13 -7.4 18.8 68 -12.2 10
09:00 1022 30.18 851 25.13 -7.3 18.9 66 -12.5 9.5
09:05 1022 30.18 851 25.13 -7.2 19.1 67 -12.4 9.7
09:10 1022 30.18 851 25.13 -7.1 19.2 64 -12.8 9
09:15 1022 30.18 851 25.13 -7.2 19.1 64 -12.9 8.8
09:20 1022 30.18 851 25.13 -7.2 19.1 63 -13.1 8.5
09:25 1022 30.18 851 25.13 -7.2 19 62 -13.3 8.1
09:30 1022 30.18 851 25.13 -7.3 18.8 63 -13.3 8.1
09:35 1022 30.18 851 25.13 -7.2 19 63 -13.2 8.3
09:40 1022 30.18 852 25.16 -7 19.3 62 -13.2 8.3
09:45 1022 30.18 852 25.16 -7 19.4 63 -13 8.6
09:50 1022 30.18 852 25.16 -6.9 19.5 61 -13.2 8.3
09:55 1023 30.21 852 25.16 -6.8 19.7 60 -13.4 7.9
10:00 1023 30.21 852 25.16 -6.8 19.8 59 -13.5 7.6
10:05 1023 30.21 852 25.16 -6.9 19.6 59 -13.6 7.5
10:10 1023 30.21 852 25.16 -6.8 19.8 58 -13.6 7.4
10:15 1023 30.21 852 25.16 -6.8 19.8 58 -13.7 7.3
10:20 1023 30.21 852 25.16 -6.7 19.9 59 -13.4 7.8
10:25 1023 30.21 852 25.16 -6.6 20.2 59 -13.4 7.9
10:30 1023 30.21 852 25.16 -6.4 20.4 57 -13.7 7.4
10:35 1023 30.21 852 25.16 -6.3 20.7 56 -13.6 7.5
10:40 1023 30.21 852 25.16 -6.4 20.5 57 -13.5 7.6
10:45 1023 30.21 852 25.16 -6.5 20.3 57 -13.6 7.5
10:50 1023 30.21 852 25.16 -6.5 20.3 56 -13.8 7.2
10:55 1023 30.21 852 25.16 -6.5 20.3 56 -13.9 7.1
11:00 1023 30.21 852 25.16 -6.4 20.5 56 -13.9 7
11:05 1023 30.21 852 25.16 -6.2 20.8 56 -13.7 7.4
11:10 1023 30.21 852 25.16 -5.8 21.5 53 -13.9 6.9
11:15 1023 30.21 852 25.16 -5.2 22.7 52 -13.6 7.4
11:20 1023 30.21 852 25.16 -5.3 22.5 51 -14 6.8
11:25 1023 30.21 852 25.16 -5.5 22.2 51 -14 6.8
11:30 1023 30.21 852 25.16 -4.9 23.3 48 -14.3 6.3
11:35 1023 30.21 852 25.16 -4.5 23.9 47 -14.2 6.5
11:40 1023 30.21 853 25.19 -4.5 23.8 46 -14.6 5.8
11:45 1023 30.21 853 25.19 -4.7 23.5 46 -14.6 5.8
11:50 1023 30.21 853 25.19 -5.1 22.8 48 -14.6 5.7
11:55 1023 30.21 853 25.19 -5 23 47 -14.6 5.6
12:00 1023 30.21 853 25.19 -5 23.1 47 -14.7 5.5
12:05 1023 30.21 853 25.19 -5 23 48 -14.3 6.3
12:10 1023 30.21 853 25.19 -5.3 22.4 49 -14.5 5.9
12:15 1023 30.21 853 25.19 -5.3 22.5 48 -14.6 5.7
12:20 1023 30.21 853 25.19 -5.1 22.8 50 -14.1 6.7
12:25 1024 30.24 853 25.19 -4.8 23.4 48 -14.3 6.3
12:30 1024 30.24 853 25.19 -5.2 22.7 49 -14.3 6.2
12:35 1024 30.24 853 25.19 -5.6 21.9 49 -14.7 5.5
12:40 1024 30.24 853 25.19 -5.7 21.8 51 -14.3 6.2
12:45 1024 30.24 853 25.19 -5.5 22.1 48 -14.8 5.4
12:50 1024 30.24 853 25.19 -5.3 22.4 53 -13.5 7.6
12:55 1024 30.24 853 25.19 -6.1 21 56 -13.5 7.7
13:00 1024 30.24 853 25.19 -6.7 19.9 59 -13.4 7.8
13:05 1024 30.24 853 25.19 -6.7 19.9 58 -13.7 7.3
13:10 1024 30.24 853 25.19 -6.4 20.5 57 -13.6 7.5
13:15 1024 30.24 853 25.19 -6.3 20.6 57 -13.6 7.6
13:20 1024 30.24 853 25.19 -6.3 20.7 54 -14.1 6.6
13:25 1024 30.24 853 25.19 -6.3 20.6 51 -14.9 5.3
13:30 1024 30.24 853 25.19 -6.4 20.4 52 -14.8 5.3
13:35 1024 30.24 853 25.19 -6.2 20.8 51 -14.9 5.2
13:40 1024 30.24 853 25.19 -6.3 20.6 51 -14.8 5.3
13:45 1024 30.24 853 25.19 -6.3 20.6 51 -15 5.1
13:50 1024 30.24 853 25.19 -5.7 21.8 49 -14.7 5.5
13:55 1024 30.24 853 25.19 -5.1 22.8 50 -14.1 6.6
14:00 1024 30.24 853 25.19 -5.1 22.9 48 -14.6 5.7
14:05 1024 30.24 853 25.19 -5.4 22.2 48 -14.7 5.5
14:10 1024 30.24 853 25.19 -5.2 22.6 47 -14.8 5.4
14:15 1024 30.24 853 25.19 -5.4 22.3 50 -14.2 6.4
14:20 1024 30.24 853 25.19 -5 23 46 -15 5
14:25 1024 30.24 853 25.19 -4.8 23.3 47 -14.4 6.1
14:30 1024 30.24 853 25.19 -4.7 23.5 49 -13.8 7.2
14:35 1024 30.24 853 25.19 -4.3 24.2 49 -13.5 7.8
14:40 1024 30.24 853 25.19 -4.1 24.7 48 -13.6 7.5
14:45 1024 30.24 853 25.19 -4.2 24.5 47 -13.8 7.1
14:50 1024 30.24 853 25.19 -4 24.9 49 -13.3 8.1
14:55 1024 30.24 853 25.19 -4.2 24.4 47 -13.8 7.1
15:00 1024 30.24 853 25.19 -4.1 24.7 50 -13.1 8.4
15:05 1024 30.24 853 25.19 -3.7 25.3 47 -13.4 8
15:10 1024 30.24 853 25.19 -3.5 25.6 49 -12.7 9.2
15:15 1024 30.24 853 25.19 -2.6 27.4 43 -13.4 7.8
15:20 1024 30.24 853 25.19 -2.6 27.3 44 -13.2 8.3
15:25 1024 30.24 853 25.19 -3.2 26.2 45 -13.6 7.5
15:30 1024 30.24 853 25.19 -3.4 25.8 46 -13.5 7.6
15:35 1024 30.24 853 25.19 -3.6 25.5 45 -13.8 7.2
15:40 1024 30.24 853 25.19 -4.7 23.6 48 -14 6.8
15:45 1024 30.24 853 25.19 -4.1 24.6 44 -14.6 5.7
15:50 1024 30.24 853 25.19 -4.6 23.6 47 -14.3 6.2
15:55 1024 30.24 853 25.19 -4.1 24.6 41 -15.5 4.1
16:00 1024 30.24 853 25.19 -3.9 24.9 42 -14.9 5.1
16:05 1024 30.24 853 25.19 -3.4 25.9 41 -15 5.1
16:10 1024 30.24 853 25.19 -3 26.6 40 -14.8 5.3
16:15 1024 30.24 853 25.19 -3.3 26.1 40 -14.9 5.1
16:20 1024 30.24 853 25.19 -3.7 25.3 41 -15.1 4.9
16:25 1024 30.24 854 25.22 -3.2 26.3 40 -15 5
16:30 1024 30.24 854 25.22 -2.6 27.4 37 -15.4 4.3
16:35 1024 30.24 853 25.19 -2.6 27.2 37 -15.3 4.4
16:40 1024 30.24 853 25.19 -2.7 27.2 39 -15 5.1
16:45 1024 30.24 853 25.19 -2.6 27.3 39 -14.8 5.4
16:50 1024 30.24 853 25.19 -2.7 27.2 40 -14.6 5.8
16:55 1024 30.24 853 25.19 -3.1 26.3 42 -14.3 6.3
17:00 1024 30.24 853 25.19 -3.5 25.6 40 -15.2 4.6
17:05 1024 30.24 853 25.19 -3.9 24.9 44 -14.6 5.7
17:10 1024 30.24 853 25.19 -3.9 25 39 -15.8 3.6
17:15 1024 30.24 853 25.19 -3.3 26.1 39 -15.4 4.2
17:20 1024 30.24 853 25.19 -2.7 27.1 39 -14.9 5.3
17:25 1024 30.24 853 25.19 -2.7 27.1 40 -14.5 5.8
17:30 1024 30.24 853 25.19 -3.1 26.4 37 -15.7 3.7
17:35 1024 30.24 853 25.19 -3.2 26.3 39 -15.2 4.6
17:40 1024 30.24 853 25.19 -3 26.5 39 -15.2 4.6
17:45 1024 30.24 853 25.19 -3.6 25.5 40 -15.2 4.6
17:50 1024 30.24 853 25.19 -3.5 25.8 39 -15.6 3.9
17:55 1024 30.24 853 25.19 -3.4 25.8 39 -15.5 4
18:00 1023 30.21 853 25.19 -3.5 25.6 40 -15.3 4.4
18:05 1023 30.21 853 25.19 -3.5 25.7 39 -15.6 4
18:10 1023 30.21 853 25.19 -3.4 25.8 39 -15.6 3.9
18:15 1023 30.21 853 25.19 -3.5 25.6 40 -15.2 4.6
18:20 1023 30.21 852 25.16 -3.6 25.4 40 -15.4 4.3
18:25 1023 30.21 852 25.16 -4 24.8 40 -15.6 4
18:30 1023 30.21 852 25.16 -4.1 24.7 40 -15.9 3.4
18:35 1023 30.21 852 25.16 -4.4 24 41 -15.7 3.8
18:40 1023 30.21 852 25.16 -4.6 23.8 42 -15.8 3.6
18:45 1023 30.21 852 25.16 -4.8 23.4 44 -15.3 4.4
18:50 1023 30.21 852 25.16 -5.1 22.8 44 -15.5 4.1
18:55 1023 30.21 852 25.16 -5.4 22.2 46 -15.3 4.5
19:00 1023 30.21 852 25.16 -5.6 21.9 46 -15.3 4.4
19:05 1023 30.21 852 25.16 -5.8 21.5 47 -15.5 4.2
19:10 1023 30.21 852 25.16 -6 21.2 48 -15.4 4.3
19:15 1023 30.21 852 25.16 -6.2 20.9 48 -15.4 4.3
19:20 1023 30.21 852 25.16 -6.3 20.6 49 -15.4 4.3
19:25 1023 30.21 852 25.16 -6.4 20.5 49 -15.4 4.3
19:30 1023 30.21 852 25.16 -6.4 20.4 50 -15.3 4.4
19:35 1023 30.21 852 25.16 -6.5 20.4 50 -15.3 4.5
19:40 1023 30.21 852 25.16 -6.6 20.1 50 -15.3 4.4
19:45 1023 30.21 852 25.16 -6.8 19.8 51 -15.3 4.4
19:50 1023 30.21 852 25.16 -7 19.5 52 -15.3 4.5
19:55 1023 30.21 852 25.16 -7.1 19.3 53 -15.2 4.7
20:00 1023 30.21 852 25.16 -7.2 19 53 -15.2 4.7
20:05 1023 30.21 852 25.16 -7.4 18.6 56 -14.7 5.5
20:10 1023 30.21 852 25.16 -7.8 18.1 57 -14.8 5.4
20:15 1023 30.21 852 25.16 -8.2 17.3 60 -14.6 5.8
20:20 1023 30.21 852 25.16 -8.4 16.9 62 -14.5 6
20:25 1023 30.21 852 25.16 -8.5 16.6 60 -14.9 5.2
20:30 1023 30.21 852 25.16 -8.7 16.4 61 -14.9 5.1
20:35 1023 30.21 852 25.16 -8.7 16.3 62 -14.7 5.5
20:40 1023 30.21 852 25.16 -8.7 16.4 63 -14.5 5.9
20:45 1023 30.21 852 25.16 -8.6 16.5 62 -14.6 5.8
20:50 1023 30.21 852 25.16 -8.5 16.7 63 -14.4 6.1
20:55 1023 30.21 852 25.16 -8.7 16.4 64 -14.3 6.2
21:00 1023 30.21 852 25.16 -8.8 16.2 64 -14.4 6.1
21:05 1023 30.21 852 25.16 -8.9 16.1 64 -14.4 6.1
21:10 1023 30.21 852 25.16 -9 15.7 65 -14.5 5.9
21:15 1023 30.21 852 25.16 -9.3 15.3 65 -14.6 5.7
21:20 1023 30.21 852 25.16 -9.4 15.2 64 -15 5
21:25 1023 30.21 852 25.16 -9.4 15.1 64 -15 5.1
21:30 1023 30.21 852 25.16 -9.5 15 66 -14.7 5.5
21:35 1023 30.21 852 25.16 -9.7 14.6 66 -14.8 5.3
21:40 1023 30.21 852 25.16 -9.8 14.4 66 -15 5.1
21:45 1023 30.21 852 25.16 -9.9 14.2 67 -15 5
21:50 1023 30.21 852 25.16 -10 14 67 -15 5.1
21:55 1023 30.21 852 25.16 -10.1 13.8 68 -15 5
22:00 1023 30.21 852 25.16 -10.3 13.4 68 -15.1 4.9
22:05 1023 30.21 852 25.16 -10.6 13 69 -15.3 4.5
22:10 1023 30.21 852 25.16 -10.4 13.2 68 -15.2 4.7
22:15 1022 30.18 852 25.16 -10.4 13.2 68 -15.3 4.5
22:20 1022 30.18 852 25.16 -10.3 13.5 66 -15.4 4.2
22:25 1022 30.18 852 25.16 -10.2 13.6 67 -15.3 4.4
22:30 1022 30.18 852 25.16 -10.2 13.6 67 -15.3 4.5
22:35 1022 30.18 851 25.13 -10.2 13.6 66 -15.4 4.4
22:40 1022 30.18 851 25.13 -10.1 13.8 66 -15.4 4.4
22:45 1022 30.18 851 25.13 -10 14 65 -15.4 4.2
22:50 1022 30.18 851 25.13 -9.9 14.2 64 -15.4 4.3
22:55 1022 30.18 851 25.13 -9.9 14.3 64 -15.4 4.3
23:00 1022 30.18 851 25.13 -9.7 14.5 63 -15.5 4.2
23:05 1022 30.18 851 25.13 -9.5 14.9 63 -15.4 4.4
23:10 1022 30.18 851 25.13 -9.6 14.8 64 -15.2 4.7
23:15 1022 30.18 851 25.13 -9.6 14.7 63 -15.4 4.4
23:20 1022 30.18 851 25.13 -9.5 14.9 64 -15.2 4.7
23:25 1022 30.18 851 25.13 -9.5 14.9 63 -15.2 4.6
23:30 1022 30.18 851 25.13 -9.5 14.9 63 -15.2 4.6
23:35 1022 30.18 851 25.13 -9.5 15 63 -15.3 4.5
23:40 1022 30.18 851 25.13 -9.4 15.2 63 -15.2 4.7
23:45 1022 30.18 851 25.13 -9.5 15 63 -15.2 4.7
23:50 1022 30.18 851 25.13 -9.6 14.8 64 -15.2 4.6
23:55 1022 30.18 851 25.13 -9.6 14.8 64 -15.2 4.6
24:00 1022 30.18 851 25.13 -9.6 14.6 64 -15.2 4.6